KWRL/WRL METAR and TAF weather

Enter ICAO airport designator
Station Type Date Time Source
KWRL METAR 2022/12/08 13:53 UTC NOAA

KWRL 081353Z AUTO 17005KT 10SM CLR M16/M17 A3009 RMK AO2 SLP263 T11561172


Station Type Date Time Source
KWRL Decoded METAR 2022/12/08 13:53 UTC NOAA

WORLAND MUNICIPAL AIRPORT, WY, United States (KWRL) 43-58N 107-57W 1271M
Dec 08, 2022 - 08:53 AM EST / 2022.12.08 1353 UTC
Wind: from the S (170 degrees) at 6 MPH (5 KT):0
Visibility: 10 mile(s):0
Sky conditions: clear
Temperature: 3.9 F (-15.6 C)
Windchill: -7 F (-22 C):2
Dew Point: 1.0 F (-17.2 C)
Relative Humidity: 87%
Pressure (altimeter): 30.09 in. Hg (1018 hPa)
ob: KWRL 081353Z AUTO 17005KT 10SM CLR M16/M17 A3009 RMK AO2 SLP263 T11561172
cycle: 14

Station Type Date Time Source
KWRL TAF 2022/12/08 12:22 UTC NOAA

TAF KWRL 081120Z 0812/0912 VRB05KT P6SM SKC
FM090500 16007KT P6SM SKC

Example: see airport list